sensor_id;sensor_type;location;lat;lon;timestamp;P1;durP1;ratioP1;P2;durP2;ratioP2
11016;SDS011;54687;50.800;6.772;2023-04-25T00:01:15;10.13;;;4.63;;
11016;SDS011;54687;50.800;6.772;2023-04-25T00:03:41;6.28;;;4.28;;
11016;SDS011;54687;50.800;6.772;2023-04-25T00:06:08;8.68;;;5.00;;
11016;SDS011;54687;50.800;6.772;2023-04-25T00:08:35;9.40;;;4.60;;
11016;SDS011;54687;50.800;6.772;2023-04-25T00:11:03;7.97;;;5.10;;
11016;SDS011;54687;50.800;6.772;2023-04-25T00:13:30;7.70;;;4.60;;
11016;SDS011;54687;50.800;6.772;2023-04-25T00:15:56;9.93;;;5.28;;
11016;SDS011;54687;50.800;6.772;2023-04-25T00:18:23;10.13;;;5.30;;
11016;SDS011;54687;50.800;6.772;2023-04-25T00:20:50;9.27;;;4.88;;
11016;SDS011;54687;50.800;6.772;2023-04-25T00:23:16;8.23;;;4.97;;
11016;SDS011;54687;50.800;6.772;2023-04-25T00:25:43;8.50;;;4.43;;
11016;SDS011;54687;50.800;6.772;2023-04-25T00:28:12;10.48;;;4.97;;
11016;SDS011;54687;50.800;6.772;2023-04-25T00:30:39;6.53;;;4.53;;
11016;SDS011;54687;50.800;6.772;2023-04-25T00:33:06;7.18;;;4.70;;
11016;SDS011;54687;50.800;6.772;2023-04-25T00:35:33;10.25;;;4.50;;
11016;SDS011;54687;50.800;6.772;2023-04-25T00:38:00;7.20;;;4.53;;
11016;SDS011;54687;50.800;6.772;2023-04-25T00:40:27;9.48;;;5.07;;
11016;SDS011;54687;50.800;6.772;2023-04-25T00:42:54;11.02;;;5.25;;
11016;SDS011;54687;50.800;6.772;2023-04-25T00:45:22;8.30;;;5.72;;
11016;SDS011;54687;50.800;6.772;2023-04-25T00:47:54;7.18;;;4.60;;
11016;SDS011;54687;50.800;6.772;2023-04-25T00:50:21;7.88;;;4.72;;
11016;SDS011;54687;50.800;6.772;2023-04-25T00:52:47;6.50;;;4.13;;
11016;SDS011;54687;50.800;6.772;2023-04-25T00:55:14;7.60;;;4.70;;
11016;SDS011;54687;50.800;6.772;2023-04-25T00:57:42;5.93;;;4.40;;
11016;SDS011;54687;50.800;6.772;2023-04-25T01:00:09;10.40;;;4.53;;
11016;SDS011;54687;50.800;6.772;2023-04-25T01:02:39;6.00;;;4.28;;
11016;SDS011;54687;50.800;6.772;2023-04-25T01:05:07;8.77;;;4.63;;
11016;SDS011;54687;50.800;6.772;2023-04-25T01:07:34;6.20;;;4.80;;
11016;SDS011;54687;50.800;6.772;2023-04-25T01:10:01;8.02;;;4.95;;
11016;SDS011;54687;50.800;6.772;2023-04-25T01:12:29;7.15;;;4.50;;
11016;SDS011;54687;50.800;6.772;2023-04-25T01:14:56;9.60;;;4.60;;
11016;SDS011;54687;50.800;6.772;2023-04-25T01:17:23;8.95;;;5.25;;
11016;SDS011;54687;50.800;6.772;2023-04-25T01:19:51;8.70;;;4.80;;
11016;SDS011;54687;50.800;6.772;2023-04-25T01:22:19;8.98;;;5.00;;
11016;SDS011;54687;50.800;6.772;2023-04-25T01:24:46;8.35;;;5.03;;
11016;SDS011;54687;50.800;6.772;2023-04-25T01:27:13;8.07;;;5.15;;
11016;SDS011;54687;50.800;6.772;2023-04-25T01:29:40;9.48;;;4.95;;
11016;SDS011;54687;50.800;6.772;2023-04-25T01:32:07;10.20;;;4.70;;
11016;SDS011;54687;50.800;6.772;2023-04-25T01:34:34;6.88;;;4.47;;
11016;SDS011;54687;50.800;6.772;2023-04-25T01:37:01;13.55;;;5.60;;
11016;SDS011;54687;50.800;6.772;2023-04-25T01:39:29;9.65;;;4.97;;
11016;SDS011;54687;50.800;6.772;2023-04-25T01:41:55;9.65;;;4.90;;
11016;SDS011;54687;50.800;6.772;2023-04-25T01:44:23;14.93;;;5.70;;
11016;SDS011;54687;50.800;6.772;2023-04-25T01:46:50;8.70;;;5.25;;
11016;SDS011;54687;50.800;6.772;2023-04-25T01:49:17;8.70;;;5.13;;
11016;SDS011;54687;50.800;6.772;2023-04-25T01:51:43;11.95;;;5.55;;
11016;SDS011;54687;50.800;6.772;2023-04-25T01:54:10;13.68;;;5.95;;
11016;SDS011;54687;50.800;6.772;2023-04-25T01:56:38;10.90;;;5.22;;
11016;SDS011;54687;50.800;6.772;2023-04-25T01:59:05;15.15;;;5.97;;
11016;SDS011;54687;50.800;6.772;2023-04-25T02:01:32;9.02;;;5.50;;
11016;SDS011;54687;50.800;6.772;2023-04-25T02:03:59;10.95;;;5.07;;
11016;SDS011;54687;50.800;6.772;2023-04-25T02:06:25;9.88;;;4.93;;
11016;SDS011;54687;50.800;6.772;2023-04-25T02:08:52;10.40;;;5.70;;
11016;SDS011;54687;50.800;6.772;2023-04-25T02:11:18;10.60;;;5.20;;
11016;SDS011;54687;50.800;6.772;2023-04-25T02:13:46;9.07;;;5.15;;
11016;SDS011;54687;50.800;6.772;2023-04-25T02:16:13;9.27;;;5.40;;
11016;SDS011;54687;50.800;6.772;2023-04-25T02:18:39;11.40;;;6.05;;
11016;SDS011;54687;50.800;6.772;2023-04-25T02:21:06;11.85;;;5.57;;
11016;SDS011;54687;50.800;6.772;2023-04-25T02:23:32;12.75;;;4.95;;
11016;SDS011;54687;50.800;6.772;2023-04-25T02:25:59;10.48;;;5.32;;
11016;SDS011;54687;50.800;6.772;2023-04-25T02:28:26;12.05;;;5.10;;
11016;SDS011;54687;50.800;6.772;2023-04-25T02:30:54;14.57;;;6.15;;
11016;SDS011;54687;50.800;6.772;2023-04-25T02:33:20;10.32;;;5.68;;
11016;SDS011;54687;50.800;6.772;2023-04-25T02:35:47;12.05;;;5.80;;
11016;SDS011;54687;50.800;6.772;2023-04-25T02:38:14;10.18;;;5.53;;
11016;SDS011;54687;50.800;6.772;2023-04-25T02:40:41;9.40;;;5.55;;
11016;SDS011;54687;50.800;6.772;2023-04-25T02:43:07;16.42;;;6.40;;
11016;SDS011;54687;50.800;6.772;2023-04-25T02:45:34;10.98;;;6.30;;
11016;SDS011;54687;50.800;6.772;2023-04-25T02:48:02;13.40;;;5.95;;
11016;SDS011;54687;50.800;6.772;2023-04-25T02:50:30;15.32;;;7.07;;
11016;SDS011;54687;50.800;6.772;2023-04-25T02:52:56;11.60;;;5.70;;
11016;SDS011;54687;50.800;6.772;2023-04-25T02:55:23;13.40;;;5.88;;
11016;SDS011;54687;50.800;6.772;2023-04-25T02:57:49;11.57;;;5.50;;
11016;SDS011;54687;50.800;6.772;2023-04-25T03:00:16;14.10;;;5.82;;
11016;SDS011;54687;50.800;6.772;2023-04-25T03:02:42;10.68;;;5.82;;
11016;SDS011;54687;50.800;6.772;2023-04-25T03:05:10;11.82;;;6.13;;
11016;SDS011;54687;50.800;6.772;2023-04-25T03:07:37;11.38;;;5.47;;
11016;SDS011;54687;50.800;6.772;2023-04-25T03:10:05;11.23;;;5.93;;
11016;SDS011;54687;50.800;6.772;2023-04-25T03:12:32;12.07;;;5.60;;
11016;SDS011;54687;50.800;6.772;2023-04-25T03:14:59;9.38;;;5.22;;
11016;SDS011;54687;50.800;6.772;2023-04-25T03:17:25;9.45;;;4.75;;
11016;SDS011;54687;50.800;6.772;2023-04-25T03:19:52;6.53;;;4.57;;
11016;SDS011;54687;50.800;6.772;2023-04-25T03:22:20;7.40;;;5.28;;
11016;SDS011;54687;50.800;6.772;2023-04-25T03:24:47;7.75;;;5.00;;
11016;SDS011;54687;50.800;6.772;2023-04-25T03:27:13;10.63;;;4.78;;
11016;SDS011;54687;50.800;6.772;2023-04-25T03:29:42;7.07;;;4.90;;
11016;SDS011;54687;50.800;6.772;2023-04-25T03:32:08;8.10;;;5.15;;
11016;SDS011;54687;50.800;6.772;2023-04-25T03:34:35;10.15;;;5.03;;
11016;SDS011;54687;50.800;6.772;2023-04-25T03:37:02;6.72;;;4.75;;
11016;SDS011;54687;50.800;6.772;2023-04-25T03:39:29;8.43;;;5.47;;
11016;SDS011;54687;50.800;6.772;2023-04-25T03:41:56;9.93;;;5.18;;
11016;SDS011;54687;50.800;6.772;2023-04-25T03:44:22;11.75;;;5.75;;
11016;SDS011;54687;50.800;6.772;2023-04-25T03:46:50;10.10;;;4.88;;
11016;SDS011;54687;50.800;6.772;2023-04-25T03:49:16;10.48;;;5.10;;
11016;SDS011;54687;50.800;6.772;2023-04-25T03:51:43;11.32;;;5.03;;
11016;SDS011;54687;50.800;6.772;2023-04-25T03:54:09;10.60;;;5.45;;
11016;SDS011;54687;50.800;6.772;2023-04-25T03:56:37;10.05;;;5.35;;
11016;SDS011;54687;50.800;6.772;2023-04-25T03:59:04;13.18;;;5.13;;
11016;SDS011;54687;50.800;6.772;2023-04-25T04:01:31;10.30;;;5.20;;
11016;SDS011;54687;50.800;6.772;2023-04-25T04:03:57;8.85;;;4.63;;
11016;SDS011;54687;50.800;6.772;2023-04-25T04:06:24;7.55;;;4.68;;
11016;SDS011;54687;50.800;6.772;2023-04-25T04:08:50;9.95;;;5.80;;
11016;SDS011;54687;50.800;6.772;2023-04-25T04:11:17;10.75;;;6.05;;
11016;SDS011;54687;50.800;6.772;2023-04-25T04:13:45;9.35;;;5.32;;
11016;SDS011;54687;50.800;6.772;2023-04-25T04:16:11;10.00;;;6.15;;
11016;SDS011;54687;50.800;6.772;2023-04-25T04:18:38;12.25;;;6.10;;
11016;SDS011;54687;50.800;6.772;2023-04-25T04:21:05;8.18;;;5.75;;
11016;SDS011;54687;50.800;6.772;2023-04-25T04:23:31;8.43;;;5.53;;
11016;SDS011;54687;50.800;6.772;2023-04-25T04:25:58;11.50;;;5.75;;
11016;SDS011;54687;50.800;6.772;2023-04-25T04:28:26;11.10;;;5.80;;
11016;SDS011;54687;50.800;6.772;2023-04-25T04:30:54;14.05;;;6.82;;
11016;SDS011;54687;50.800;6.772;2023-04-25T04:33:20;9.40;;;6.28;;
11016;SDS011;54687;50.800;6.772;2023-04-25T04:35:49;9.35;;;5.43;;
11016;SDS011;54687;50.800;6.772;2023-04-25T04:38:18;12.05;;;6.25;;
11016;SDS011;54687;50.800;6.772;2023-04-25T04:40:46;10.27;;;6.70;;
11016;SDS011;54687;50.800;6.772;2023-04-25T04:43:13;11.25;;;6.10;;
11016;SDS011;54687;50.800;6.772;2023-04-25T04:45:42;9.55;;;5.80;;
11016;SDS011;54687;50.800;6.772;2023-04-25T04:48:11;9.88;;;5.70;;
11016;SDS011;54687;50.800;6.772;2023-04-25T04:50:39;11.30;;;6.20;;
11016;SDS011;54687;50.800;6.772;2023-04-25T04:53:06;10.20;;;6.57;;
11016;SDS011;54687;50.800;6.772;2023-04-25T04:55:33;16.48;;;6.88;;
11016;SDS011;54687;50.800;6.772;2023-04-25T04:57:59;12.70;;;6.20;;
11016;SDS011;54687;50.800;6.772;2023-04-25T05:00:26;12.75;;;6.20;;
11016;SDS011;54687;50.800;6.772;2023-04-25T05:02:54;13.50;;;6.60;;
11016;SDS011;54687;50.800;6.772;2023-04-25T05:05:22;15.18;;;7.35;;
11016;SDS011;54687;50.800;6.772;2023-04-25T05:07:49;13.82;;;6.93;;
11016;SDS011;54687;50.800;6.772;2023-04-25T05:10:16;13.05;;;6.82;;
11016;SDS011;54687;50.800;6.772;2023-04-25T05:12:43;10.90;;;6.82;;
11016;SDS011;54687;50.800;6.772;2023-04-25T05:15:10;16.45;;;7.78;;
11016;SDS011;54687;50.800;6.772;2023-04-25T05:17:36;11.45;;;6.22;;
11016;SDS011;54687;50.800;6.772;2023-04-25T05:20:04;15.85;;;7.35;;
11016;SDS011;54687;50.800;6.772;2023-04-25T05:22:33;10.88;;;6.03;;
11016;SDS011;54687;50.800;6.772;2023-04-25T05:24:59;11.15;;;6.20;;
11016;SDS011;54687;50.800;6.772;2023-04-25T05:27:26;10.65;;;6.72;;
11016;SDS011;54687;50.800;6.772;2023-04-25T05:29:53;14.82;;;7.38;;
11016;SDS011;54687;50.800;6.772;2023-04-25T05:32:19;16.45;;;7.18;;
11016;SDS011;54687;50.800;6.772;2023-04-25T05:34:46;11.80;;;6.20;;
11016;SDS011;54687;50.800;6.772;2023-04-25T05:37:13;15.63;;;6.50;;
11016;SDS011;54687;50.800;6.772;2023-04-25T05:39:41;12.50;;;6.45;;
11016;SDS011;54687;50.800;6.772;2023-04-25T05:42:08;19.23;;;6.00;;
11016;SDS011;54687;50.800;6.772;2023-04-25T05:44:35;11.57;;;6.00;;
11016;SDS011;54687;50.800;6.772;2023-04-25T05:47:02;16.00;;;6.10;;
11016;SDS011;54687;50.800;6.772;2023-04-25T05:49:30;17.75;;;6.13;;
11016;SDS011;54687;50.800;6.772;2023-04-25T05:51:57;16.10;;;5.70;;
11016;SDS011;54687;50.800;6.772;2023-04-25T05:54:23;11.90;;;5.65;;
11016;SDS011;54687;50.800;6.772;2023-04-25T05:56:51;17.98;;;6.85;;
11016;SDS011;54687;50.800;6.772;2023-04-25T05:59:18;12.57;;;5.88;;
11016;SDS011;54687;50.800;6.772;2023-04-25T06:01:45;13.27;;;6.07;;
11016;SDS011;54687;50.800;6.772;2023-04-25T06:04:11;12.55;;;6.43;;
11016;SDS011;54687;50.800;6.772;2023-04-25T06:06:38;16.73;;;7.30;;
11016;SDS011;54687;50.800;6.772;2023-04-25T06:09:04;16.83;;;7.18;;
11016;SDS011;54687;50.800;6.772;2023-04-25T06:11:31;15.00;;;6.70;;
11016;SDS011;54687;50.800;6.772;2023-04-25T06:13:59;13.85;;;6.40;;
11016;SDS011;54687;50.800;6.772;2023-04-25T06:16:25;12.98;;;6.70;;
11016;SDS011;54687;50.800;6.772;2023-04-25T06:18:52;17.98;;;7.35;;
11016;SDS011;54687;50.800;6.772;2023-04-25T06:21:19;14.43;;;6.35;;
11016;SDS011;54687;50.800;6.772;2023-04-25T06:23:45;17.25;;;6.53;;
11016;SDS011;54687;50.800;6.772;2023-04-25T06:26:12;14.68;;;6.25;;
11016;SDS011;54687;50.800;6.772;2023-04-25T06:28:38;13.50;;;5.80;;
11016;SDS011;54687;50.800;6.772;2023-04-25T06:31:06;13.60;;;6.40;;
11016;SDS011;54687;50.800;6.772;2023-04-25T06:33:33;20.85;;;6.70;;
11016;SDS011;54687;50.800;6.772;2023-04-25T06:35:59;17.75;;;7.03;;
11016;SDS011;54687;50.800;6.772;2023-04-25T06:38:26;14.82;;;5.82;;
11016;SDS011;54687;50.800;6.772;2023-04-25T06:40:52;14.40;;;5.72;;
11016;SDS011;54687;50.800;6.772;2023-04-25T06:43:19;13.77;;;5.72;;
11016;SDS011;54687;50.800;6.772;2023-04-25T06:45:46;19.70;;;5.38;;
11016;SDS011;54687;50.800;6.772;2023-04-25T06:48:14;16.75;;;5.75;;
11016;SDS011;54687;50.800;6.772;2023-04-25T06:50:40;11.30;;;5.60;;
11016;SDS011;54687;50.800;6.772;2023-04-25T06:53:07;21.92;;;5.90;;
11016;SDS011;54687;50.800;6.772;2023-04-25T06:55:36;12.80;;;5.85;;
11016;SDS011;54687;50.800;6.772;2023-04-25T06:58:03;10.60;;;5.22;;
11016;SDS011;54687;50.800;6.772;2023-04-25T07:00:31;14.90;;;5.72;;
11016;SDS011;54687;50.800;6.772;2023-04-25T07:02:58;11.38;;;5.25;;
11016;SDS011;54687;50.800;6.772;2023-04-25T07:05:28;22.27;;;7.10;;
11016;SDS011;54687;50.800;6.772;2023-04-25T07:07:54;13.88;;;6.15;;
11016;SDS011;54687;50.800;6.772;2023-04-25T07:10:22;12.55;;;6.03;;
11016;SDS011;54687;50.800;6.772;2023-04-25T07:12:50;11.05;;;5.63;;
11016;SDS011;54687;50.800;6.772;2023-04-25T07:15:16;12.80;;;5.47;;
11016;SDS011;54687;50.800;6.772;2023-04-25T07:17:43;15.23;;;6.72;;
11016;SDS011;54687;50.800;6.772;2023-04-25T07:20:10;11.18;;;5.28;;
11016;SDS011;54687;50.800;6.772;2023-04-25T07:22:38;17.60;;;6.53;;
11016;SDS011;54687;50.800;6.772;2023-04-25T07:25:07;13.57;;;6.10;;
11016;SDS011;54687;50.800;6.772;2023-04-25T07:27:34;13.52;;;5.60;;
11016;SDS011;54687;50.800;6.772;2023-04-25T07:30:01;14.40;;;5.32;;
11016;SDS011;54687;50.800;6.772;2023-04-25T07:32:28;14.55;;;5.43;;
11016;SDS011;54687;50.800;6.772;2023-04-25T07:34:56;12.63;;;5.40;;
11016;SDS011;54687;50.800;6.772;2023-04-25T07:37:22;12.43;;;5.30;;
11016;SDS011;54687;50.800;6.772;2023-04-25T07:39:51;13.77;;;5.85;;
11016;SDS011;54687;50.800;6.772;2023-04-25T07:42:18;11.50;;;5.40;;
11016;SDS011;54687;50.800;6.772;2023-04-25T07:44:44;13.60;;;5.07;;
11016;SDS011;54687;50.800;6.772;2023-04-25T07:47:11;13.10;;;5.72;;
11016;SDS011;54687;50.800;6.772;2023-04-25T07:49:38;13.82;;;5.47;;
11016;SDS011;54687;50.800;6.772;2023-04-25T07:52:05;17.50;;;5.80;;
11016;SDS011;54687;50.800;6.772;2023-04-25T07:54:32;16.10;;;5.30;;
11016;SDS011;54687;50.800;6.772;2023-04-25T07:57:00;13.55;;;4.70;;
11016;SDS011;54687;50.800;6.772;2023-04-25T07:59:29;10.27;;;4.80;;
11016;SDS011;54687;50.800;6.772;2023-04-25T08:01:55;15.18;;;4.82;;
11016;SDS011;54687;50.800;6.772;2023-04-25T08:04:23;11.32;;;4.65;;
11016;SDS011;54687;50.800;6.772;2023-04-25T08:06:50;17.42;;;5.35;;
11016;SDS011;54687;50.800;6.772;2023-04-25T08:09:19;14.35;;;4.80;;
11016;SDS011;54687;50.800;6.772;2023-04-25T08:11:46;10.93;;;4.22;;
11016;SDS011;54687;50.800;6.772;2023-04-25T08:14:14;16.50;;;4.68;;
11016;SDS011;54687;50.800;6.772;2023-04-25T08:16:41;9.38;;;3.65;;
11016;SDS011;54687;50.800;6.772;2023-04-25T08:19:08;11.00;;;4.43;;
11016;SDS011;54687;50.800;6.772;2023-04-25T08:21:36;7.85;;;3.85;;
11016;SDS011;54687;50.800;6.772;2023-04-25T08:24:02;13.65;;;4.10;;
11016;SDS011;54687;50.800;6.772;2023-04-25T08:26:29;9.55;;;3.75;;
11016;SDS011;54687;50.800;6.772;2023-04-25T08:28:56;10.38;;;3.78;;
11016;SDS011;54687;50.800;6.772;2023-04-25T08:31:24;8.95;;;3.85;;
11016;SDS011;54687;50.800;6.772;2023-04-25T08:33:50;14.57;;;4.20;;
11016;SDS011;54687;50.800;6.772;2023-04-25T08:36:17;11.73;;;3.47;;
11016;SDS011;54687;50.800;6.772;2023-04-25T08:38:44;9.57;;;4.00;;
11016;SDS011;54687;50.800;6.772;2023-04-25T08:41:11;12.43;;;4.10;;
11016;SDS011;54687;50.800;6.772;2023-04-25T08:43:38;7.70;;;3.22;;
11016;SDS011;54687;50.800;6.772;2023-04-25T08:46:09;7.85;;;3.63;;
11016;SDS011;54687;50.800;6.772;2023-04-25T08:48:39;9.25;;;3.38;;
11016;SDS011;54687;50.800;6.772;2023-04-25T08:51:07;11.05;;;3.78;;
11016;SDS011;54687;50.800;6.772;2023-04-25T08:53:34;7.65;;;3.42;;
11016;SDS011;54687;50.800;6.772;2023-04-25T08:56:01;11.15;;;4.20;;
11016;SDS011;54687;50.800;6.772;2023-04-25T08:58:28;12.40;;;3.83;;
11016;SDS011;54687;50.800;6.772;2023-04-25T09:00:55;11.18;;;3.83;;
11016;SDS011;54687;50.800;6.772;2023-04-25T09:03:21;9.55;;;4.00;;
11016;SDS011;54687;50.800;6.772;2023-04-25T09:05:49;9.25;;;3.45;;
11016;SDS011;54687;50.800;6.772;2023-04-25T09:08:17;7.72;;;3.67;;
11016;SDS011;54687;50.800;6.772;2023-04-25T09:10:44;8.65;;;3.88;;
11016;SDS011;54687;50.800;6.772;2023-04-25T09:13:12;6.05;;;3.20;;
11016;SDS011;54687;50.800;6.772;2023-04-25T09:15:47;9.05;;;3.65;;
11016;SDS011;54687;50.800;6.772;2023-04-25T09:18:21;9.93;;;4.03;;
11016;SDS011;54687;50.800;6.772;2023-04-25T09:20:51;7.00;;;3.45;;
11016;SDS011;54687;50.800;6.772;2023-04-25T09:23:19;7.68;;;3.13;;
11016;SDS011;54687;50.800;6.772;2023-04-25T09:25:46;5.70;;;3.00;;
11016;SDS011;54687;50.800;6.772;2023-04-25T09:28:14;7.13;;;2.97;;
11016;SDS011;54687;50.800;6.772;2023-04-25T09:30:42;5.40;;;3.15;;
11016;SDS011;54687;50.800;6.772;2023-04-25T09:33:09;8.43;;;4.07;;
11016;SDS011;54687;50.800;6.772;2023-04-25T09:35:37;7.63;;;3.20;;
11016;SDS011;54687;50.800;6.772;2023-04-25T09:38:10;6.60;;;3.05;;
11016;SDS011;54687;50.800;6.772;2023-04-25T09:40:39;6.05;;;2.70;;
11016;SDS011;54687;50.800;6.772;2023-04-25T09:43:08;6.80;;;2.85;;
11016;SDS011;54687;50.800;6.772;2023-04-25T09:45:40;7.25;;;3.10;;
11016;SDS011;54687;50.800;6.772;2023-04-25T09:48:12;7.55;;;3.08;;
11016;SDS011;54687;50.800;6.772;2023-04-25T09:50:43;8.15;;;3.53;;
11016;SDS011;54687;50.800;6.772;2023-04-25T09:53:11;8.25;;;3.10;;
11016;SDS011;54687;50.800;6.772;2023-04-25T09:55:38;8.15;;;3.10;;
11016;SDS011;54687;50.800;6.772;2023-04-25T09:58:06;6.82;;;3.30;;
11016;SDS011;54687;50.800;6.772;2023-04-25T10:00:38;7.38;;;3.22;;
11016;SDS011;54687;50.800;6.772;2023-04-25T10:03:06;6.78;;;3.33;;
11016;SDS011;54687;50.800;6.772;2023-04-25T10:05:34;12.07;;;4.07;;
11016;SDS011;54687;50.800;6.772;2023-04-25T10:08:24;6.60;;;3.30;;
11016;SDS011;54687;50.800;6.772;2023-04-25T10:10:54;9.40;;;4.18;;
11016;SDS011;54687;50.800;6.772;2023-04-25T10:13:21;8.35;;;3.65;;
11016;SDS011;54687;50.800;6.772;2023-04-25T10:15:49;8.35;;;3.55;;
11016;SDS011;54687;50.800;6.772;2023-04-25T10:18:18;6.55;;;3.17;;
11016;SDS011;54687;50.800;6.772;2023-04-25T10:20:45;5.97;;;3.20;;
11016;SDS011;54687;50.800;6.772;2023-04-25T10:23:12;9.20;;;3.55;;
11016;SDS011;54687;50.800;6.772;2023-04-25T10:25:41;7.60;;;3.92;;
11016;SDS011;54687;50.800;6.772;2023-04-25T10:28:09;6.63;;;3.42;;
11016;SDS011;54687;50.800;6.772;2023-04-25T10:30:37;8.35;;;3.60;;
11016;SDS011;54687;50.800;6.772;2023-04-25T10:33:28;8.98;;;3.15;;
11016;SDS011;54687;50.800;6.772;2023-04-25T10:35:58;8.95;;;3.60;;
11016;SDS011;54687;50.800;6.772;2023-04-25T10:38:24;11.07;;;4.13;;
11016;SDS011;54687;50.800;6.772;2023-04-25T10:41:04;11.32;;;4.25;;
11016;SDS011;54687;50.800;6.772;2023-04-25T10:43:35;8.30;;;3.75;;
11016;SDS011;54687;50.800;6.772;2023-04-25T10:46:12;6.53;;;3.13;;
11016;SDS011;54687;50.800;6.772;2023-04-25T10:48:43;6.45;;;3.17;;
11016;SDS011;54687;50.800;6.772;2023-04-25T10:51:15;11.32;;;3.80;;
11016;SDS011;54687;50.800;6.772;2023-04-25T10:53:43;8.70;;;4.10;;
11016;SDS011;54687;50.800;6.772;2023-04-25T10:56:12;10.82;;;3.78;;
11016;SDS011;54687;50.800;6.772;2023-04-25T10:58:43;5.88;;;3.33;;
11016;SDS011;54687;50.800;6.772;2023-04-25T11:01:10;8.40;;;3.45;;
11016;SDS011;54687;50.800;6.772;2023-04-25T11:03:40;8.93;;;3.85;;
11016;SDS011;54687;50.800;6.772;2023-04-25T11:06:10;7.60;;;3.30;;
11016;SDS011;54687;50.800;6.772;2023-04-25T11:08:47;9.27;;;6.03;;
11016;SDS011;54687;50.800;6.772;2023-04-25T11:11:16;10.98;;;4.72;;
11016;SDS011;54687;50.800;6.772;2023-04-25T11:13:43;7.65;;;4.07;;
11016;SDS011;54687;50.800;6.772;2023-04-25T11:16:12;7.93;;;3.75;;
11016;SDS011;54687;50.800;6.772;2023-04-25T11:18:40;9.40;;;3.63;;
11016;SDS011;54687;50.800;6.772;2023-04-25T11:21:07;8.57;;;3.33;;
11016;SDS011;54687;50.800;6.772;2023-04-25T11:23:34;6.80;;;3.05;;
11016;SDS011;54687;50.800;6.772;2023-04-25T11:26:02;6.68;;;3.42;;
11016;SDS011;54687;50.800;6.772;2023-04-25T11:28:30;10.43;;;3.90;;
11016;SDS011;54687;50.800;6.772;2023-04-25T11:30:57;10.13;;;3.47;;
11016;SDS011;54687;50.800;6.772;2023-04-25T11:33:24;6.47;;;3.08;;
11016;SDS011;54687;50.800;6.772;2023-04-25T11:35:52;6.95;;;3.03;;
11016;SDS011;54687;50.800;6.772;2023-04-25T11:38:19;8.52;;;3.47;;
11016;SDS011;54687;50.800;6.772;2023-04-25T11:40:49;9.60;;;4.32;;
11016;SDS011;54687;50.800;6.772;2023-04-25T11:43:16;6.40;;;3.08;;
11016;SDS011;54687;50.800;6.772;2023-04-25T11:45:47;7.60;;;4.15;;
11016;SDS011;54687;50.800;6.772;2023-04-25T11:48:15;6.68;;;3.80;;
11016;SDS011;54687;50.800;6.772;2023-04-25T11:50:42;8.70;;;3.70;;
11016;SDS011;54687;50.800;6.772;2023-04-25T11:53:09;5.40;;;2.75;;
11016;SDS011;54687;50.800;6.772;2023-04-25T11:55:36;10.50;;;4.68;;
11016;SDS011;54687;50.800;6.772;2023-04-25T11:58:03;8.20;;;3.97;;
11016;SDS011;54687;50.800;6.772;2023-04-25T12:00:30;6.78;;;3.50;;
11016;SDS011;54687;50.800;6.772;2023-04-25T12:02:59;8.30;;;3.72;;
11016;SDS011;54687;50.800;6.772;2023-04-25T12:05:30;9.20;;;3.47;;
11016;SDS011;54687;50.800;6.772;2023-04-25T12:07:58;7.07;;;3.10;;
11016;SDS011;54687;50.800;6.772;2023-04-25T12:10:36;6.85;;;2.83;;
11016;SDS011;54687;50.800;6.772;2023-04-25T12:13:17;8.95;;;4.28;;
11016;SDS011;54687;50.800;6.772;2023-04-25T12:15:44;8.48;;;3.50;;
11016;SDS011;54687;50.800;6.772;2023-04-25T12:18:12;8.02;;;4.03;;
11016;SDS011;54687;50.800;6.772;2023-04-25T12:20:39;5.90;;;3.63;;
11016;SDS011;54687;50.800;6.772;2023-04-25T12:23:07;6.40;;;3.20;;
11016;SDS011;54687;50.800;6.772;2023-04-25T12:25:36;4.72;;;2.60;;
11016;SDS011;54687;50.800;6.772;2023-04-25T12:28:10;6.07;;;3.15;;
11016;SDS011;54687;50.800;6.772;2023-04-25T12:30:56;6.82;;;2.85;;
11016;SDS011;54687;50.800;6.772;2023-04-25T12:33:26;5.95;;;3.08;;
11016;SDS011;54687;50.800;6.772;2023-04-25T12:35:53;9.27;;;3.72;;
11016;SDS011;54687;50.800;6.772;2023-04-25T12:38:20;7.13;;;3.28;;
11016;SDS011;54687;50.800;6.772;2023-04-25T12:40:47;6.32;;;3.15;;
11016;SDS011;54687;50.800;6.772;2023-04-25T12:43:14;7.13;;;3.13;;
11016;SDS011;54687;50.800;6.772;2023-04-25T12:45:40;6.63;;;3.10;;
11016;SDS011;54687;50.800;6.772;2023-04-25T12:48:07;8.18;;;3.22;;
11016;SDS011;54687;50.800;6.772;2023-04-25T12:50:35;6.70;;;3.15;;
11016;SDS011;54687;50.800;6.772;2023-04-25T12:53:02;8.38;;;3.58;;
11016;SDS011;54687;50.800;6.772;2023-04-25T12:55:30;8.60;;;4.68;;
11016;SDS011;54687;50.800;6.772;2023-04-25T12:57:57;20.20;;;8.00;;
11016;SDS011;54687;50.800;6.772;2023-04-25T13:00:23;6.43;;;2.90;;
11016;SDS011;54687;50.800;6.772;2023-04-25T13:02:51;5.47;;;3.25;;
11016;SDS011;54687;50.800;6.772;2023-04-25T13:05:18;5.05;;;3.35;;
11016;SDS011;54687;50.800;6.772;2023-04-25T13:07:46;7.63;;;3.20;;
11016;SDS011;54687;50.800;6.772;2023-04-25T13:10:13;5.00;;;2.90;;
11016;SDS011;54687;50.800;6.772;2023-04-25T13:12:40;6.32;;;3.20;;
11016;SDS011;54687;50.800;6.772;2023-04-25T13:15:07;8.73;;;3.42;;
11016;SDS011;54687;50.800;6.772;2023-04-25T13:17:36;4.28;;;2.42;;
11016;SDS011;54687;50.800;6.772;2023-04-25T13:20:03;5.75;;;3.10;;
11016;SDS011;54687;50.800;6.772;2023-04-25T13:22:31;4.93;;;2.55;;
11016;SDS011;54687;50.800;6.772;2023-04-25T13:24:59;7.07;;;2.92;;
11016;SDS011;54687;50.800;6.772;2023-04-25T13:27:25;5.40;;;2.95;;
11016;SDS011;54687;50.800;6.772;2023-04-25T13:29:52;7.65;;;3.35;;
11016;SDS011;54687;50.800;6.772;2023-04-25T13:32:18;9.63;;;4.50;;
11016;SDS011;54687;50.800;6.772;2023-04-25T13:34:45;5.68;;;3.50;;
11016;SDS011;54687;50.800;6.772;2023-04-25T13:37:12;6.15;;;2.70;;
11016;SDS011;54687;50.800;6.772;2023-04-25T13:39:39;5.28;;;3.08;;
11016;SDS011;54687;50.800;6.772;2023-04-25T13:42:07;5.35;;;2.78;;
11016;SDS011;54687;50.800;6.772;2023-04-25T13:44:34;7.80;;;2.88;;
11016;SDS011;54687;50.800;6.772;2023-04-25T13:47:01;5.05;;;2.83;;
11016;SDS011;54687;50.800;6.772;2023-04-25T13:49:29;4.82;;;2.90;;
11016;SDS011;54687;50.800;6.772;2023-04-25T13:51:56;8.05;;;3.03;;
11016;SDS011;54687;50.800;6.772;2023-04-25T13:54:23;3.85;;;2.42;;
11016;SDS011;54687;50.800;6.772;2023-04-25T13:56:50;5.18;;;3.22;;
11016;SDS011;54687;50.800;6.772;2023-04-25T13:59:25;6.75;;;3.20;;
11016;SDS011;54687;50.800;6.772;2023-04-25T14:01:51;5.05;;;2.80;;
11016;SDS011;54687;50.800;6.772;2023-04-25T14:04:18;3.42;;;2.35;;
11016;SDS011;54687;50.800;6.772;2023-04-25T14:06:45;5.93;;;3.13;;
11016;SDS011;54687;50.800;6.772;2023-04-25T14:09:13;9.23;;;3.13;;
11016;SDS011;54687;50.800;6.772;2023-04-25T14:11:40;6.43;;;3.00;;
11016;SDS011;54687;50.800;6.772;2023-04-25T14:14:07;4.68;;;2.60;;
11016;SDS011;54687;50.800;6.772;2023-04-25T14:16:35;6.43;;;3.03;;
11016;SDS011;54687;50.800;6.772;2023-04-25T14:19:02;3.72;;;2.60;;
11016;SDS011;54687;50.800;6.772;2023-04-25T14:21:28;6.95;;;2.90;;
11016;SDS011;54687;50.800;6.772;2023-04-25T14:23:57;4.22;;;2.30;;
11016;SDS011;54687;50.800;6.772;2023-04-25T14:26:23;4.82;;;2.50;;
11016;SDS011;54687;50.800;6.772;2023-04-25T14:28:50;4.43;;;2.38;;
11016;SDS011;54687;50.800;6.772;2023-04-25T14:31:17;5.72;;;2.28;;
11016;SDS011;54687;50.800;6.772;2023-04-25T14:33:45;5.30;;;2.50;;
11016;SDS011;54687;50.800;6.772;2023-04-25T14:36:11;3.88;;;2.45;;
11016;SDS011;54687;50.800;6.772;2023-04-25T14:38:39;3.80;;;2.00;;
11016;SDS011;54687;50.800;6.772;2023-04-25T14:41:05;4.85;;;2.35;;
11016;SDS011;54687;50.800;6.772;2023-04-25T14:43:32;5.45;;;2.33;;